Time;durP1;ratioP1;P1;durP2;ratioP2;P2;SDS_P1;SDS_P2;PMS_P1;PMS_P2;Temp;Humidity;BMP_temperature;BMP_pressure;BME280_temperature;BME280_humidity;BME280_pressure;Samples;Min_cycle;Max_cycle;Signal;HPM_P1;HPM_P2
2022/01/22 00:00:18;;;;;;;17.38;9.95;;;4.40;99.90;;;;;;4955455;29;20106;-74
2022/01/22 00:02:44;;;;;;;20.98;9.90;;;4.60;99.90;;;;;;4955420;28;20100;-75
2022/01/22 00:05:11;;;;;;;20.35;10.45;;;4.60;99.90;;;;;;4955701;29;20042;-75
2022/01/22 00:07:37;;;;;;;20.77;10.93;;;4.60;99.90;;;;;;4937940;29;20126;-75
2022/01/22 00:10:07;;;;;;;19.13;12.68;;;4.60;99.90;;;;;;4955478;29;20114;-75
2022/01/22 00:15:04;;;;;;;22.50;12.40;;;4.60;99.90;;;;;;4955231;29;20099;-75
2022/01/22 00:17:29;;;;;;;22.05;12.32;;;4.60;99.90;;;;;;4953910;29;20024;-75
2022/01/22 00:19:55;;;;;;;19.40;11.50;;;4.50;99.90;;;;;;4955243;29;20500;-76
2022/01/22 00:22:25;;;;;;;20.98;11.93;;;4.50;99.90;;;;;;4955418;29;20106;-75
2022/01/22 00:24:56;;;;;;;18.75;12.27;;;4.50;99.90;;;;;;4955779;29;20031;-75
2022/01/22 00:27:22;;;;;;;19.60;13.23;;;4.40;99.90;;;;;;4955405;29;20028;-75
2022/01/22 00:29:47;;;;;;;22.67;12.10;;;4.40;99.90;;;;;;4955252;29;20556;-75
2022/01/22 00:32:13;;;;;;;21.38;12.27;;;4.40;99.90;;;;;;4955153;29;20047;-75
2022/01/22 00:34:38;;;;;;;23.33;13.82;;;4.40;99.90;;;;;;4937737;29;20112;-76
2022/01/22 00:37:04;;;;;;;17.95;11.07;;;4.40;99.90;;;;;;4955346;29;20023;-75
2022/01/22 00:39:30;;;;;;;17.15;10.50;;;4.40;99.90;;;;;;4954975;29;20030;-75
2022/01/22 00:41:56;;;;;;;17.90;11.13;;;4.50;99.90;;;;;;4954993;29;20020;-75
2022/01/22 00:44:22;;;;;;;20.10;10.77;;;4.40;99.90;;;;;;4955022;29;20035;-75
2022/01/22 00:46:48;;;;;;;18.00;10.75;;;4.40;99.90;;;;;;4954947;29;20477;-75
2022/01/22 00:49:13;;;;;;;19.90;11.75;;;4.40;99.90;;;;;;4954884;29;20038;-75
2022/01/22 00:51:39;;;;;;;20.80;11.80;;;4.30;99.90;;;;;;4954963;29;20027;-75
2022/01/22 00:54:05;;;;;;;18.02;10.20;;;4.30;99.90;;;;;;4954846;29;20034;-75
2022/01/22 00:56:30;;;;;;;17.98;10.88;;;4.40;99.90;;;;;;4955192;29;20501;-75
2022/01/22 00:58:56;;;;;;;19.00;9.15;;;4.40;99.90;;;;;;4955152;28;20071;-76
2022/01/22 01:01:22;;;;;;;18.00;10.20;;;4.30;99.90;;;;;;4958688;29;20082;-76
2022/01/22 01:03:48;;;;;;;19.70;10.30;;;4.40;99.90;;;;;;4958531;28;20035;-75
2022/01/22 01:06:15;;;;;;;15.48;10.50;;;4.40;99.90;;;;;;4958501;29;20122;-76
2022/01/22 01:08:42;;;;;;;19.55;9.65;;;4.40;99.90;;;;;;4958447;29;20028;-75
2022/01/22 01:11:10;;;;;;;16.77;9.57;;;4.40;99.90;;;;;;4958825;29;20027;-76
2022/01/22 01:13:42;;;;;;;19.52;9.38;;;4.50;99.90;;;;;;4941174;29;20051;-76
2022/01/22 01:16:32;;;;;;;16.27;9.30;;;4.40;99.90;;;;;;4941004;29;20027;-75
2022/01/22 01:33:30;;;;;;;17.83;9.45;;;4.50;99.90;;;;;;4958235;29;20027;-76
2022/01/22 01:35:26;;;;;;;16.80;9.50;;;4.50;99.90;;;;;;4954155;29;20035;-75
2022/01/22 01:37:54;;;;;;;15.20;10.18;;;4.50;99.90;;;;;;4958595;29;20019;-75
2022/01/22 01:40:22;;;;;;;16.10;8.82;;;4.50;99.90;;;;;;4958014;29;20024;-75
2022/01/22 01:42:58;;;;;;;16.27;9.98;;;4.50;99.90;;;;;;4958259;29;20034;-75
2022/01/22 01:45:24;;;;;;;16.85;9.40;;;4.50;99.90;;;;;;4956279;29;20482;-77
2022/01/22 01:47:57;;;;;;;14.68;9.38;;;4.50;99.90;;;;;;4957907;29;20026;-75
2022/01/22 01:50:23;;;;;;;20.13;9.75;;;4.60;99.90;;;;;;4958302;29;20496;-76
2022/01/22 01:53:04;;;;;;;15.82;9.40;;;4.50;99.90;;;;;;4957776;29;20020;-75
2022/01/22 01:55:45;;;;;;;16.15;9.48;;;4.50;99.90;;;;;;4957731;29;20023;-75
2022/01/22 01:58:11;;;;;;;17.35;9.07;;;4.50;99.90;;;;;;4940219;29;20027;-76
2022/01/22 02:00:37;;;;;;;14.68;9.43;;;4.60;99.90;;;;;;4957650;29;20560;-75
2022/01/22 02:03:03;;;;;;;16.98;9.32;;;4.60;99.90;;;;;;4957538;28;20019;-75
2022/01/22 02:05:29;;;;;;;17.95;10.35;;;4.60;99.90;;;;;;4957582;29;20533;-75
2022/01/22 02:07:55;;;;;;;14.98;9.40;;;4.50;99.90;;;;;;4957177;29;20090;-74
2022/01/22 02:10:26;;;;;;;16.92;9.07;;;4.50;99.90;;;;;;4957561;28;20031;-76
2022/01/22 02:26:09;;;;;;;17.00;9.40;;;4.50;99.90;;;;;;4957519;29;20027;-76
2022/01/22 02:28:35;;;;;;;18.92;10.38;;;4.60;99.90;;;;;;4957610;29;20031;-75
2022/01/22 02:32:20;;;;;;;21.00;9.85;;;4.70;99.90;;;;;;4957035;29;20023;-75
2022/01/22 02:36:54;;;;;;;16.83;9.75;;;4.60;99.90;;;;;;4957320;29;20090;-74
2022/01/22 02:39:32;;;;;;;14.57;9.35;;;4.60;99.90;;;;;;4957195;29;20019;-75
2022/01/22 02:41:58;;;;;;;12.07;8.68;;;4.70;99.90;;;;;;4939492;29;20059;-75
2022/01/22 02:44:43;;;;;;;20.30;9.57;;;4.60;99.90;;;;;;4956876;29;20055;-74
2022/01/22 02:47:09;;;;;;;14.05;9.23;;;4.70;99.90;;;;;;4955279;29;20466;-75
2022/01/22 02:49:36;;;;;;;17.40;10.32;;;4.70;99.90;;;;;;4956992;29;20122;-76
2022/01/22 02:52:07;;;;;;;13.73;9.30;;;4.60;99.90;;;;;;4956988;29;20478;-75
2022/01/22 02:54:33;;;;;;;16.65;9.70;;;4.60;99.90;;;;;;4956695;29;20020;-75
2022/01/22 02:56:59;;;;;;;16.77;9.65;;;4.70;99.90;;;;;;4956606;29;20086;-75
2022/01/22 02:59:26;;;;;;;14.40;9.00;;;4.70;99.90;;;;;;4956518;29;20100;-76
2022/01/22 03:01:52;;;;;;;16.55;9.20;;;4.80;99.90;;;;;;4956607;29;20035;-75
2022/01/22 03:04:18;;;;;;;14.50;9.32;;;4.80;99.90;;;;;;4955065;28;20082;-75
2022/01/22 03:06:44;;;;;;;18.00;9.85;;;4.80;99.90;;;;;;4956181;29;20059;-75
2022/01/22 03:09:12;;;;;;;14.30;9.38;;;4.90;99.90;;;;;;4956349;29;20019;-76
2022/01/22 03:12:13;;;;;;;17.92;9.73;;;4.80;99.90;;;;;;4956870;29;20111;-75
2022/01/22 03:22:22;;;;;;;16.33;9.75;;;4.80;99.90;;;;;;4955989;28;20564;-76
2022/01/22 03:27:33;;;;;;;21.42;11.32;;;4.70;99.90;;;;;;4956061;29;20054;-75
2022/01/22 03:30:00;;;;;;;19.92;12.90;;;4.80;99.90;;;;;;4955977;29;20504;-75
2022/01/22 03:32:31;;;;;;;22.67;14.20;;;4.80;99.90;;;;;;4938774;29;20023;-75
2022/01/22 03:35:09;;;;;;;21.77;13.60;;;4.70;99.90;;;;;;4956238;29;20026;-76
2022/01/22 03:37:35;;;;;;;20.38;11.50;;;4.70;99.90;;;;;;4955941;29;20030;-75
2022/01/22 03:40:02;;;;;;;19.95;11.85;;;4.60;99.90;;;;;;4956089;29;20392;-75
2022/01/22 03:42:28;;;;;;;17.08;10.25;;;4.50;99.90;;;;;;4955671;29;20031;-74
2022/01/22 03:44:53;;;;;;;18.15;11.55;;;4.50;99.90;;;;;;4938594;29;20397;-75
2022/01/22 03:47:20;;;;;;;15.68;10.85;;;4.60;99.90;;;;;;4955702;29;20031;-75
2022/01/22 03:49:46;;;;;;;20.67;12.82;;;4.70;99.90;;;;;;4955896;29;20035;-75
2022/01/22 03:52:12;;;;;;;17.88;11.00;;;4.70;99.90;;;;;;4955934;29;20030;-75
2022/01/22 03:54:38;;;;;;;17.88;10.13;;;4.80;99.90;;;;;;4955628;29;20026;-75
2022/01/22 03:57:04;;;;;;;17.05;10.55;;;4.80;99.90;;;;;;4955489;29;20024;-75
2022/01/22 03:59:30;;;;;;;14.90;10.00;;;4.80;99.90;;;;;;4955534;29;20028;-74
2022/01/22 04:02:17;;;;;;;17.10;10.40;;;4.80;99.90;;;;;;4954268;29;20031;-75
2022/01/22 04:04:53;;;;;;;14.27;9.25;;;4.70;99.90;;;;;;4955595;29;20035;-76
2022/01/22 04:09:53;;;;;;;17.00;10.45;;;4.70;99.90;;;;;;4955376;29;20027;-74
2022/01/22 04:12:26;;;;;;;17.55;10.32;;;4.80;99.90;;;;;;4938132;29;20034;-75
2022/01/22 04:14:58;;;;;;;19.00;10.18;;;4.80;99.90;;;;;;4937864;29;20409;-75
2022/01/22 04:24:48;;;;;;;19.92;11.02;;;4.70;99.90;;;;;;4937807;29;20030;-75
2022/01/22 04:25:43;;;;;;;18.50;10.68;;;4.70;99.90;;;;;;4955516;29;20117;-76
2022/01/22 04:28:09;;;;;;;19.45;10.95;;;4.60;99.90;;;;;;4955300;29;20031;-75
2022/01/22 04:30:35;;;;;;;16.58;10.73;;;4.70;99.90;;;;;;4955065;29;20034;-75
2022/01/22 04:33:04;;;;;;;15.40;8.98;;;4.70;99.90;;;;;;4955127;29;20027;-75
2022/01/22 04:35:30;;;;;;;15.55;9.48;;;4.70;99.90;;;;;;4954461;29;20030;-75
2022/01/22 04:37:56;;;;;;;16.23;10.60;;;4.70;99.90;;;;;;4955079;29;20028;-75
2022/01/22 04:40:21;;;;;;;14.00;8.95;;;4.70;99.90;;;;;;4955070;29;20038;-75
2022/01/22 04:42:47;;;;;;;13.32;9.23;;;4.70;99.90;;;;;;4955343;29;20031;-75
2022/01/22 04:48:07;;;;;;;13.63;9.35;;;4.70;99.90;;;;;;4954774;29;20054;-75
2022/01/22 04:55:43;;;;;;;16.17;10.82;;;4.70;99.90;;;;;;4954921;29;20015;-74
2022/01/22 04:58:09;;;;;;;17.85;10.00;;;4.70;99.90;;;;;;4954908;29;20051;-75
2022/01/22 05:00:38;;;;;;;14.43;9.70;;;4.70;99.90;;;;;;4955117;29;20036;-76
2022/01/22 05:03:05;;;;;;;14.55;9.88;;;4.70;99.90;;;;;;4954786;28;20446;-76
2022/01/22 05:05:31;;;;;;;14.52;9.80;;;4.70;99.90;;;;;;4954846;29;20086;-75
2022/01/22 05:07:57;;;;;;;17.60;10.13;;;4.60;99.90;;;;;;4954419;29;20059;-75
2022/01/22 05:10:23;;;;;;;17.73;10.13;;;4.70;99.90;;;;;;4954651;29;20030;-75
2022/01/22 05:12:49;;;;;;;15.38;10.60;;;4.70;99.90;;;;;;4954781;29;20489;-75
2022/01/22 05:15:17;;;;;;;13.73;9.80;;;4.70;99.90;;;;;;4955303;29;20027;-75
2022/01/22 05:17:44;;;;;;;19.27;11.25;;;4.70;99.90;;;;;;4955204;29;20031;-75
2022/01/22 05:20:18;;;;;;;16.55;10.45;;;4.70;99.90;;;;;;4954680;29;20020;-75
2022/01/22 05:26:00;;;;;;;22.63;13.07;;;4.70;99.90;;;;;;4914667;29;20056;-75
2022/01/22 05:39:14;;;;;;;29.23;15.32;;;4.80;99.90;;;;;;4954622;29;20086;-75
2022/01/22 05:41:40;;;;;;;22.52;13.68;;;4.80;99.90;;;;;;4954552;29;20031;-74
2022/01/22 05:44:07;;;;;;;26.63;15.10;;;4.90;99.90;;;;;;4954524;29;20038;-75
2022/01/22 05:46:33;;;;;;;24.40;14.40;;;4.80;99.90;;;;;;4957081;28;20024;-76
2022/01/22 05:48:59;;;;;;;21.83;13.93;;;4.90;99.90;;;;;;4957850;29;20401;-76
2022/01/22 05:51:24;;;;;;;23.52;13.32;;;4.90;99.90;;;;;;4958134;29;20019;-76
2022/01/22 06:01:53;;;;;;;19.80;10.20;;;4.90;99.90;;;;;;4958249;29;20382;-74
2022/01/22 06:04:19;;;;;;;17.55;11.10;;;4.80;99.90;;;;;;4957522;28;20039;-74
2022/01/22 06:06:45;;;;;;;15.50;10.90;;;4.80;99.90;;;;;;4957389;29;20051;-75
2022/01/22 06:09:10;;;;;;;15.15;10.35;;;4.80;99.90;;;;;;4957974;29;20039;-76
2022/01/22 06:12:14;;;;;;;20.55;11.10;;;4.90;99.90;;;;;;4957469;29;20031;-75
2022/01/22 06:14:23;;;;;;;17.83;12.10;;;4.90;99.90;;;;;;4956772;29;20042;-76
2022/01/22 06:16:50;;;;;;;20.10;12.00;;;4.90;99.90;;;;;;4957430;29;20019;-75
2022/01/22 06:19:15;;;;;;;18.90;11.02;;;4.90;99.90;;;;;;4957362;29;20035;-75
2022/01/22 06:21:41;;;;;;;19.30;11.35;;;4.80;99.90;;;;;;4957328;29;20433;-74
2022/01/22 06:24:07;;;;;;;20.23;12.38;;;4.90;99.90;;;;;;4957284;29;20505;-75
2022/01/22 06:26:35;;;;;;;15.93;10.70;;;4.90;99.90;;;;;;4957480;29;20039;-75
2022/01/22 06:29:01;;;;;;;17.48;11.95;;;5.00;99.90;;;;;;4939883;29;20421;-75
2022/01/22 06:31:27;;;;;;;20.52;11.82;;;5.00;99.90;;;;;;4957176;29;20019;-75
2022/01/22 06:33:53;;;;;;;15.20;10.80;;;5.00;99.90;;;;;;4957092;29;20504;-77
2022/01/22 06:36:18;;;;;;;19.60;12.25;;;4.90;99.90;;;;;;4957027;29;20401;-75
2022/01/22 06:38:44;;;;;;;17.90;11.35;;;5.00;99.90;;;;;;4957015;29;20032;-76
2022/01/22 06:43:54;;;;;;;15.55;10.77;;;5.00;99.90;;;;;;4956661;29;20556;-75
2022/01/22 06:46:19;;;;;;;16.25;10.75;;;4.90;99.90;;;;;;4956902;29;20031;-75
2022/01/22 06:48:45;;;;;;;13.40;9.65;;;4.80;99.90;;;;;;4956749;29;20078;-74
2022/01/22 06:51:11;;;;;;;16.98;10.32;;;4.70;99.90;;;;;;4939583;29;20074;-76
2022/01/22 06:53:40;;;;;;;17.50;10.18;;;4.80;99.90;;;;;;4957006;29;20027;-75
2022/01/22 06:56:07;;;;;;;18.02;11.30;;;4.90;99.90;;;;;;4957227;29;20015;-75
2022/01/22 06:58:33;;;;;;;14.25;10.57;;;5.00;99.90;;;;;;4956323;28;20042;-75
2022/01/22 07:00:59;;;;;;;16.60;11.07;;;5.00;99.90;;;;;;4956593;29;20027;-75
2022/01/22 07:03:25;;;;;;;17.10;11.07;;;4.90;99.90;;;;;;4939269;29;20027;-75
2022/01/22 07:05:51;;;;;;;61.17;42.58;;;5.00;99.90;;;;;;4956341;29;20019;-76
2022/01/22 07:08:16;;;;;;;29.95;22.33;;;5.00;99.90;;;;;;4956412;29;20185;-75
2022/01/22 07:10:42;;;;;;;16.17;10.93;;;4.90;99.90;;;;;;4956362;29;20035;-75
2022/01/22 07:13:08;;;;;;;21.35;14.77;;;4.90;99.90;;;;;;4956315;29;20023;-75
2022/01/22 07:15:33;;;;;;;15.82;10.85;;;4.90;99.90;;;;;;4956610;29;20019;-75
2022/01/22 07:18:00;;;;;;;13.98;10.07;;;5.00;99.90;;;;;;4956839;29;20046;-75
2022/01/22 07:20:29;;;;;;;29.15;12.70;;;5.00;99.90;;;;;;4956253;29;20537;-74
2022/01/22 07:25:25;;;;;;;14.35;9.73;;;4.90;99.90;;;;;;4955830;29;20051;-76
2022/01/22 07:27:51;;;;;;;20.17;12.65;;;5.00;99.90;;;;;;4956103;29;20085;-75
2022/01/22 07:30:17;;;;;;;20.75;13.25;;;4.90;99.90;;;;;;4956270;29;20035;-76
2022/01/22 07:32:44;;;;;;;17.50;11.82;;;5.00;99.90;;;;;;4938803;29;20027;-75
2022/01/22 07:35:14;;;;;;;24.48;19.95;;;5.00;99.90;;;;;;4955982;29;20023;-75
2022/01/22 07:37:40;;;;;;;;;;;5.00;99.90;;;;;;4956948;29;20023;-75
2022/01/22 07:40:08;;;;;;;20.23;12.65;;;5.00;99.90;;;;;;4955885;29;19910;-75
2022/01/22 07:42:34;;;;;;;22.17;17.30;;;5.00;99.90;;;;;;4955840;29;20031;-75
2022/01/22 07:45:00;;;;;;;22.60;14.60;;;4.90;99.90;;;;;;4955811;29;20034;-75
2022/01/22 07:47:26;;;;;;;18.90;13.27;;;4.90;99.90;;;;;;4955803;29;20045;-76
2022/01/22 07:49:51;;;;;;;17.55;12.55;;;5.00;99.90;;;;;;4955893;29;20027;-75
2022/01/22 07:52:17;;;;;;;23.88;15.38;;;5.00;99.90;;;;;;4955712;29;20054;-76
2022/01/22 07:54:43;;;;;;;20.20;14.20;;;5.00;99.90;;;;;;4938490;29;20105;-75
2022/01/22 07:57:08;;;;;;;18.42;13.82;;;5.00;99.90;;;;;;4955602;29;20027;-76
2022/01/22 07:59:34;;;;;;;19.30;13.45;;;5.00;99.90;;;;;;4955859;29;20023;-76
2022/01/22 08:02:04;;;;;;;21.17;13.32;;;5.10;99.90;;;;;;4955541;29;20027;-76
2022/01/22 08:04:30;;;;;;;19.80;13.48;;;5.10;99.90;;;;;;4955713;28;20082;-75
2022/01/22 08:07:01;;;;;;;18.10;12.52;;;5.10;99.90;;;;;;4955235;29;20082;-75
2022/01/22 08:09:27;;;;;;;18.77;12.05;;;5.10;99.90;;;;;;4954808;28;20038;-75
2022/01/22 08:11:53;;;;;;;18.80;12.23;;;5.20;99.90;;;;;;4955671;29;20027;-76
2022/01/22 08:14:19;;;;;;;18.77;12.55;;;5.20;99.90;;;;;;4955376;29;20050;-74
2022/01/22 08:16:49;;;;;;;16.35;12.13;;;5.30;99.90;;;;;;4955313;29;20033;-76
2022/01/22 08:19:15;;;;;;;;;;;5.30;99.90;;;;;;4956007;29;20055;-75
2022/01/22 08:21:42;;;;;;;17.83;12.50;;;5.20;99.90;;;;;;4955269;29;19907;-76
2022/01/22 08:24:09;;;;;;;19.13;11.75;;;5.00;99.90;;;;;;4955191;29;20106;-75
2022/01/22 08:26:39;;;;;;;19.45;12.60;;;5.00;99.90;;;;;;4955188;29;20024;-76
2022/01/22 08:29:04;;;;;;;18.40;12.10;;;4.80;99.90;;;;;;4955369;29;20086;-75
2022/01/22 08:36:43;;;;;;;21.17;14.38;;;5.10;99.90;;;;;;4955430;29;20030;-75
2022/01/22 08:39:09;;;;;;;19.35;13.57;;;5.10;99.90;;;;;;4955071;29;20042;-75
2022/01/22 08:41:36;;;;;;;18.95;12.13;;;5.30;99.90;;;;;;4955047;29;20027;-76
2022/01/22 08:44:02;;;;;;;20.95;13.77;;;5.20;99.90;;;;;;4955056;29;20502;-76
2022/01/22 08:46:29;;;;;;;21.60;13.18;;;5.30;99.90;;;;;;4954978;29;20023;-75
2022/01/22 08:48:55;;;;;;;22.70;14.88;;;5.20;99.90;;;;;;4954915;29;20379;-76
2022/01/22 08:51:21;;;;;;;20.48;14.45;;;5.10;99.90;;;;;;4937807;29;20030;-75
2022/01/22 08:53:47;;;;;;;20.73;14.00;;;5.30;99.90;;;;;;4955240;29;20528;-76
2022/01/22 08:56:13;;;;;;;21.70;14.25;;;5.40;99.90;;;;;;4954899;29;20019;-75
2022/01/22 08:58:39;;;;;;;24.35;15.52;;;5.50;99.90;;;;;;4937739;29;20031;-76
2022/01/22 09:01:05;;;;;;;22.17;15.23;;;5.50;99.90;;;;;;4954896;29;20031;-75
2022/01/22 09:03:31;;;;;;;22.73;17.48;;;5.60;99.90;;;;;;4954828;28;20027;-75
2022/01/22 09:05:58;;;;;;;23.42;15.60;;;5.60;99.90;;;;;;4954594;29;20035;-75
2022/01/22 09:08:25;;;;;;;24.63;15.65;;;5.60;99.90;;;;;;4955406;29;20031;-75
2022/01/22 09:10:52;;;;;;;25.35;18.35;;;5.70;99.90;;;;;;4954717;29;20478;-76
2022/01/22 09:13:19;;;;;;;32.38;23.25;;;5.70;99.90;;;;;;4954806;29;20028;-75
2022/01/22 09:15:45;;;;;;;22.75;15.52;;;5.70;99.90;;;;;;4954754;29;20075;-75
2022/01/22 09:18:11;;;;;;;26.15;20.67;;;5.70;99.90;;;;;;4954746;29;20478;-76
2022/01/22 09:23:04;;;;;;;21.45;13.70;;;5.70;99.90;;;;;;4958665;29;20496;-75
2022/01/22 09:25:30;;;;;;;37.05;15.65;;;5.70;99.90;;;;;;4958350;29;20019;-76
2022/01/22 09:27:56;;;;;;;24.17;19.05;;;5.70;99.90;;;;;;4958319;29;20516;-75
2022/01/22 09:30:21;;;;;;;17.50;12.60;;;5.70;99.90;;;;;;4958228;29;20027;-75
2022/01/22 09:32:48;;;;;;;53.90;32.50;;;5.80;99.90;;;;;;4958492;29;20063;-75
2022/01/22 09:35:14;;;;;;;34.20;22.33;;;5.80;99.90;;;;;;4958167;29;20082;-76
2022/01/22 09:37:40;;;;;;;23.73;14.75;;;5.80;99.90;;;;;;4958091;29;20063;-75
2022/01/22 09:40:07;;;;;;;24.50;16.35;;;5.80;99.90;;;;;;4957946;29;20504;-76
2022/01/22 09:42:32;;;;;;;24.67;14.63;;;5.80;99.90;;;;;;4958043;29;20038;-75
2022/01/22 09:44:58;;;;;;;23.60;14.65;;;5.90;99.90;;;;;;4957977;29;20565;-75
2022/01/22 09:47:24;;;;;;;25.17;14.60;;;5.90;99.90;;;;;;4957931;29;20031;-75
2022/01/22 09:49:50;;;;;;;26.02;17.50;;;5.90;99.90;;;;;;4958410;29;20031;-76
2022/01/22 09:52:16;;;;;;;20.05;13.60;;;6.00;99.90;;;;;;4957857;29;20054;-76
2022/01/22 09:54:42;;;;;;;24.30;13.18;;;6.00;99.90;;;;;;4957851;29;20035;-75
2022/01/22 09:57:09;;;;;;;20.25;12.65;;;6.00;99.90;;;;;;4957746;29;20023;-74
2022/01/22 09:59:35;;;;;;;22.88;13.63;;;6.00;99.90;;;;;;4940421;29;20073;-76
2022/01/22 10:02:18;;;;;;;21.67;14.23;;;6.00;99.90;;;;;;4940415;29;20039;-78
2022/01/22 10:04:48;;;;;;;27.30;16.52;;;6.10;99.90;;;;;;4957898;29;20028;-78
2022/01/22 10:07:17;;;;;;;26.00;14.52;;;6.10;99.90;;;;;;4957367;29;20047;-77
2022/01/22 10:10:05;;;;;;;24.38;14.15;;;6.20;99.90;;;;;;4940047;29;20035;-79
2022/01/22 10:12:46;;;;;;;19.52;13.18;;;6.20;99.90;;;;;;4939927;29;20027;-79
2022/01/22 10:15:15;;;;;;;25.42;15.65;;;6.20;99.90;;;;;;4958015;29;20034;-76
2022/01/22 10:17:50;;;;;;;22.50;13.30;;;6.20;99.90;;;;;;4940129;29;20442;-77
2022/01/22 10:20:22;;;;;;;21.40;13.70;;;6.20;99.90;;;;;;4939796;29;20166;-76
2022/01/22 10:22:49;;;;;;;30.27;18.50;;;6.30;99.90;;;;;;4957847;29;20027;-76
2022/01/22 10:25:40;;;;;;;19.10;13.13;;;6.30;99.90;;;;;;4957224;29;20508;-77
2022/01/22 10:28:20;;;;;;;19.30;11.93;;;6.40;99.90;;;;;;4957753;29;20023;-76
2022/01/22 10:30:46;;;;;;;19.17;12.40;;;6.50;99.90;;;;;;4939594;29;20031;-76
2022/01/22 10:33:36;;;;;;;21.92;13.77;;;6.50;99.90;;;;;;4956090;28;20035;-77
2022/01/22 10:36:09;;;;;;;28.10;17.23;;;6.50;99.90;;;;;;4957480;29;20660;-77
2022/01/22 10:38:43;;;;;;;21.33;15.13;;;6.50;99.90;;;;;;4957818;29;20019;-77
2022/01/22 10:41:09;;;;;;;22.23;14.77;;;6.50;99.90;;;;;;4957298;29;20023;-78
2022/01/22 10:43:42;;;;;;;22.60;15.80;;;6.50;99.90;;;;;;4956904;29;20026;-81
2022/01/22 10:49:07;;;;;;;30.20;18.55;;;6.50;99.90;;;;;;4957100;29;20030;-76
2022/01/22 10:51:48;;;;;;;36.27;19.17;;;6.60;99.90;;;;;;4953759;29;20050;-79
2022/01/22 10:54:15;;;;;;;48.17;32.08;;;6.60;99.90;;;;;;4957335;29;20023;-75
2022/01/22 10:56:41;;;;;;;36.25;23.55;;;6.70;99.90;;;;;;4956714;29;20102;-76
2022/01/22 10:59:12;;;;;;;25.25;16.63;;;6.70;99.90;;;;;;4956627;29;20110;-77
2022/01/22 11:01:59;;;;;;;25.52;14.77;;;6.80;99.90;;;;;;4956600;29;20032;-75
2022/01/22 11:04:38;;;;;;;23.00;16.25;;;6.80;99.90;;;;;;4956418;28;20031;-75
2022/01/22 11:07:06;;;;;;;21.58;16.15;;;6.90;99.90;;;;;;4956448;29;20043;-75
2022/01/22 11:09:34;;;;;;;24.45;15.43;;;6.90;99.90;;;;;;4955532;29;20036;-75
2022/01/22 11:12:02;;;;;;;19.20;13.70;;;6.80;99.90;;;;;;4956011;29;20481;-75
2022/01/22 11:14:29;;;;;;;21.10;12.15;;;6.90;99.90;;;;;;4955986;29;20031;-75
2022/01/22 11:16:56;;;;;;;20.45;12.95;;;7.00;99.90;;;;;;4955977;29;20026;-75
2022/01/22 11:19:30;;;;;;;20.83;11.77;;;7.00;99.90;;;;;;4955865;29;20035;-75
2022/01/22 11:21:56;;;;;;;17.77;11.77;;;7.10;99.90;;;;;;4938326;29;20033;-75
2022/01/22 11:24:25;;;;;;;17.52;11.18;;;7.10;99.90;;;;;;4956117;29;20078;-75
2022/01/22 11:27:00;;;;;;;18.70;12.57;;;7.10;99.90;;;;;;4956160;29;20437;-75
2022/01/22 11:29:29;;;;;;;21.90;11.95;;;7.10;99.90;;;;;;4956614;29;20034;-75
2022/01/22 11:31:58;;;;;;;24.38;12.32;;;7.20;99.90;;;;;;4956444;29;20016;-75
2022/01/22 11:34:27;;;;;;;18.92;12.55;;;7.20;99.90;;;;;;4956267;29;20058;-75
2022/01/22 11:36:57;;;;;;;18.65;11.60;;;7.30;99.90;;;;;;4955922;29;20062;-75
2022/01/22 11:39:25;;;;;;;22.63;12.93;;;7.30;99.90;;;;;;4955921;29;20027;-75
2022/01/22 11:41:56;;;;;;;20.65;12.88;;;7.30;99.90;;;;;;4956198;29;20062;-75
2022/01/22 11:44:30;;;;;;;17.70;10.18;;;7.40;99.90;;;;;;4955645;28;20031;-75
2022/01/22 11:47:15;;;;;;;17.00;10.23;;;7.40;99.90;;;;;;4956097;29;20397;-75
2022/01/22 11:50:00;;;;;;;18.08;9.65;;;7.40;99.90;;;;;;4956254;29;20062;-75
2022/01/22 11:52:29;;;;;;;16.08;9.68;;;7.30;99.90;;;;;;4956012;29;20027;-75
2022/01/22 11:55:07;;;;;;;16.08;8.95;;;7.30;99.90;;;;;;4955930;29;20022;-75
2022/01/22 11:57:33;;;;;;;14.85;8.80;;;7.40;99.90;;;;;;4938146;29;20110;-75
2022/01/22 12:00:17;;;;;;;15.05;9.32;;;7.40;99.90;;;;;;4955592;29;20054;-75
2022/01/22 12:02:43;;;;;;;20.33;10.30;;;7.40;99.90;;;;;;4955735;28;20485;-75
2022/01/22 12:05:09;;;;;;;16.95;9.07;;;7.40;99.90;;;;;;4955534;29;20033;-75
2022/01/22 12:07:36;;;;;;;17.30;9.43;;;7.40;99.90;;;;;;4938008;29;20138;-75
2022/01/22 12:10:17;;;;;;;15.57;9.30;;;7.40;99.90;;;;;;4955360;29;20023;-76
2022/01/22 12:15:30;;;;;;;20.25;10.18;;;7.40;99.90;;;;;;4955139;29;20031;-75
2022/01/22 12:18:00;;;;;;;14.40;9.25;;;7.40;99.90;;;;;;4955852;29;20023;-75
2022/01/22 12:23:08;;;;;;;16.88;10.30;;;7.50;99.90;;;;;;4955833;29;20067;-75
2022/01/22 12:25:33;;;;;;;14.57;9.45;;;7.40;99.90;;;;;;4955527;29;20095;-75
2022/01/22 12:27:59;;;;;;;17.50;10.60;;;7.50;99.90;;;;;;4955172;29;20027;-76
2022/01/22 12:30:36;;;;;;;16.65;9.65;;;7.60;99.90;;;;;;4955120;29;20034;-76
2022/01/22 12:33:02;;;;;;;17.10;9.48;;;7.60;99.90;;;;;;4955164;29;20177;-76
2022/01/22 12:35:40;;;;;;;15.77;9.57;;;7.50;99.90;;;;;;4937906;29;20029;-75
2022/01/22 12:38:37;;;;;;;18.17;9.77;;;7.60;99.90;;;;;;4955636;29;20086;-76
2022/01/22 12:44:07;;;;;;;16.67;9.82;;;7.60;99.90;;;;;;4954838;29;20030;-75
2022/01/22 12:46:34;;;;;;;14.05;8.63;;;7.60;99.90;;;;;;4937564;29;20019;-75
2022/01/22 12:49:03;;;;;;;19.17;9.45;;;7.50;99.90;;;;;;4955503;29;20039;-75
2022/01/22 12:51:30;;;;;;;18.88;8.68;;;7.60;99.90;;;;;;4937800;29;20058;-75
2022/01/22 12:53:56;;;;;;;18.33;8.57;;;7.50;99.90;;;;;;4954959;29;20078;-75
2022/01/22 12:59:17;;;;;;;18.85;8.80;;;7.50;99.90;;;;;;4959385;29;20090;-75
2022/01/22 13:01:44;;;;;;;18.35;8.52;;;7.50;99.90;;;;;;4959099;29;20027;-75
2022/01/22 13:04:10;;;;;;;14.70;8.70;;;7.50;99.90;;;;;;4958679;28;20400;-75
2022/01/22 13:06:43;;;;;;;17.10;8.55;;;7.50;99.90;;;;;;4958553;29;20062;-75
2022/01/22 13:09:11;;;;;;;16.90;8.73;;;7.60;99.90;;;;;;4958902;29;20110;-75
2022/01/22 13:11:45;;;;;;;17.13;9.57;;;7.60;99.90;;;;;;4958913;29;20023;-75
2022/01/22 13:14:11;;;;;;;17.48;9.68;;;7.60;99.90;;;;;;4958916;29;20385;-75
2022/01/22 13:16:48;;;;;;;14.95;8.55;;;7.60;99.90;;;;;;4958512;29;20031;-75
2022/01/22 13:19:14;;;;;;;16.67;8.15;;;7.70;99.90;;;;;;4958756;29;20106;-75
2022/01/22 13:21:57;;;;;;;17.20;8.52;;;7.70;99.90;;;;;;4958456;29;20111;-75
2022/01/22 13:24:25;;;;;;;16.13;8.48;;;7.80;99.90;;;;;;4958986;29;20493;-75
2022/01/22 13:26:59;;;;;;;17.42;9.38;;;7.90;99.90;;;;;;4958407;29;20019;-75
2022/01/22 13:29:32;;;;;;;16.65;8.38;;;7.80;99.90;;;;;;4958533;29;20122;-75
2022/01/22 13:32:01;;;;;;;15.35;8.32;;;7.70;99.90;;;;;;4958839;29;20102;-75
2022/01/22 13:34:41;;;;;;;15.73;7.90;;;7.70;99.90;;;;;;4958733;29;20103;-75
2022/01/22 13:38:12;;;;;;;14.88;8.57;;;7.80;99.90;;;;;;4958791;29;20478;-75
2022/01/22 13:48:36;;;;;;;14.93;7.97;;;7.70;99.90;;;;;;4918978;29;20066;-75
2022/01/22 13:51:03;;;;;;;15.13;7.50;;;7.60;99.90;;;;;;4957629;29;20035;-75
2022/01/22 13:53:31;;;;;;;19.92;8.57;;;7.70;99.90;;;;;;4957865;29;20054;-75
2022/01/22 13:56:08;;;;;;;15.10;8.15;;;7.70;99.90;;;;;;4958121;29;20096;-75
2022/01/22 13:58:34;;;;;;;17.48;8.48;;;7.70;99.90;;;;;;4958116;29;20102;-75
2022/01/22 14:01:07;;;;;;;18.15;7.60;;;7.70;99.90;;;;;;4958062;29;20039;-75
2022/01/22 14:03:44;;;;;;;14.20;7.18;;;7.70;99.90;;;;;;4957961;28;20111;-75
2022/01/22 14:06:10;;;;;;;13.88;7.75;;;7.70;99.90;;;;;;4939998;28;20071;-75
2022/01/22 14:08:36;;;;;;;13.60;7.90;;;7.70;99.90;;;;;;4957351;29;20110;-75
2022/01/22 14:11:13;;;;;;;17.08;8.50;;;7.70;99.90;;;;;;4957506;29;20375;-76
2022/01/22 14:13:40;;;;;;;23.88;13.93;;;7.70;99.90;;;;;;4957838;29;20023;-75
2022/01/22 14:16:16;;;;;;;19.98;10.55;;;7.80;99.90;;;;;;4957471;29;20533;-75
2022/01/22 14:18:43;;;;;;;18.55;9.05;;;7.80;99.90;;;;;;4940188;29;20062;-75
2022/01/22 14:21:17;;;;;;;15.30;10.65;;;7.80;99.90;;;;;;4957381;29;20031;-76
2022/01/22 14:23:44;;;;;;;13.27;7.30;;;7.70;99.90;;;;;;4939913;29;20020;-75
2022/01/22 14:26:28;;;;;;;18.10;8.50;;;7.70;99.90;;;;;;4957211;29;20062;-75
2022/01/22 14:29:04;;;;;;;14.10;7.00;;;7.70;99.90;;;;;;4957461;29;20030;-75
2022/01/22 14:31:50;;;;;;;12.65;6.70;;;7.70;99.90;;;;;;4939753;29;20449;-76
2022/01/22 14:34:36;;;;;;;15.60;8.70;;;7.60;99.90;;;;;;4957454;29;20433;-75
2022/01/22 14:37:05;;;;;;;15.38;5.78;;;7.60;99.90;;;;;;4957116;29;20019;-75
2022/01/22 14:45:21;;;;;;;13.57;6.18;;;7.60;99.90;;;;;;4956752;29;20109;-75
2022/01/22 14:47:53;;;;;;;12.43;5.90;;;7.70;99.90;;;;;;4956946;29;20548;-75
2022/01/22 14:50:19;;;;;;;18.77;6.53;;;7.60;99.90;;;;;;4939313;29;20063;-75
2022/01/22 14:52:47;;;;;;;12.95;6.15;;;7.60;99.90;;;;;;4939558;29;20051;-75